Lake View Terrace, California
Current Conditions -  °F | °C
As of 11:53 AM on Monday 22 Dec 2014 (Local Time) from KBUR Reporting Station
Clear Clear  
Wind Chill: 73°   Ceiling: Unl
Heat Index: 73°   Visibility: 10mi
Dew Point: 47°   Wind: 0mph
Humidity: 39%   Direction: NA
Pressure: 30"   Gusts: NA
Location:  34.3277°N, 118.389°W
Report Text: KBUR 221953Z 00000KT 10SM CLR 23/08 A3000 RMK AO2 SLP148 T02280083
Loading
Personal Weather Stations






























Interactive Weather Map New forecast layout! Learn more

10-Day Weather Forecast

Advertisements
Track Severe Weather on mobile